Time;durP1;ratioP1;P1;durP2;ratioP2;P2;SDS_P1;SDS_P2;PMS_P1;PMS_P2;Temp;Humidity;BMP_temperature;BMP_pressure;BME280_temperature;BME280_humidity;BME280_pressure;Samples;Min_cycle;Max_cycle;Signal;HPM_P1;HPM_P2
2023/07/31 00:00:12;;;;;;;12.35;5.75;;;15.50;99.90;;;;;;5026215;28;20530;-67
2023/07/31 00:02:38;;;;;;;8.68;5.43;;;15.50;99.90;;;;;;5065162;28;20411;-66
2023/07/31 00:05:04;;;;;;;11.13;5.20;;;15.50;99.90;;;;;;5049018;28;20612;-66
2023/07/31 00:07:30;;;;;;;9.40;5.07;;;15.50;99.90;;;;;;5048507;28;20049;-71
2023/07/31 00:09:56;;;;;;;9.05;4.88;;;15.50;99.90;;;;;;5049303;28;20032;-65
2023/07/31 00:12:22;;;;;;;9.70;4.65;;;15.40;99.90;;;;;;5048962;28;20048;-68
2023/07/31 00:14:48;;;;;;;9.50;4.60;;;15.40;99.90;;;;;;5049224;28;20063;-65
2023/07/31 00:17:14;;;;;;;10.63;4.75;;;15.40;99.90;;;;;;5032265;28;20037;-68
2023/07/31 00:19:40;;;;;;;10.95;4.55;;;15.40;99.90;;;;;;5030331;28;20608;-66
2023/07/31 00:22:05;;;;;;;11.07;4.55;;;15.30;99.90;;;;;;5037672;28;20129;-66
2023/07/31 00:24:31;;;;;;;10.07;4.20;;;15.30;99.90;;;;;;5028369;28;20074;-66
2023/07/31 00:26:57;;;;;;;10.75;4.80;;;15.30;99.90;;;;;;5027668;28;20045;-65
2023/07/31 00:29:23;;;;;;;11.00;4.85;;;15.30;99.90;;;;;;5033479;28;20047;-63
2023/07/31 00:31:51;;;;;;;10.48;5.03;;;15.30;99.90;;;;;;5033119;28;20106;-65
2023/07/31 00:34:17;;;;;;;11.35;4.70;;;15.30;99.90;;;;;;5048066;28;20041;-70
2023/07/31 00:36:42;;;;;;;8.38;5.15;;;15.20;99.90;;;;;;5048722;28;20481;-66
2023/07/31 00:39:08;;;;;;;10.35;5.07;;;15.20;99.90;;;;;;5047646;28;20586;-67
2023/07/31 00:41:34;;;;;;;12.65;5.18;;;15.20;99.90;;;;;;5030863;28;20049;-65
2023/07/31 00:43:59;;;;;;;10.00;5.30;;;15.20;99.90;;;;;;5048334;28;20037;-68
2023/07/31 00:46:25;;;;;;;10.73;5.65;;;15.20;99.90;;;;;;5048414;28;20043;-66
2023/07/31 00:48:51;;;;;;;11.15;5.30;;;15.10;99.90;;;;;;5031538;28;20506;-65
2023/07/31 00:51:16;;;;;;;10.40;5.10;;;15.10;99.90;;;;;;5048180;28;20040;-67
2023/07/31 00:53:43;;;;;;;11.45;4.90;;;15.10;99.90;;;;;;5027144;28;20127;-69
2023/07/31 00:56:08;;;;;;;9.50;5.05;;;15.10;99.90;;;;;;5026769;28;20864;-67
2023/07/31 00:58:34;;;;;;;10.73;5.20;;;15.10;99.90;;;;;;5036731;28;20119;-67
2023/07/31 01:01:00;;;;;;;9.48;4.70;;;15.10;99.90;;;;;;5048578;28;20262;-64
2023/07/31 01:03:25;;;;;;;11.25;5.25;;;15.10;99.90;;;;;;5057808;28;20428;-71
2023/07/31 01:06:08;;;;;;;12.27;5.55;;;15.10;99.90;;;;;;5027733;28;20056;-71
2023/07/31 01:08:48;;;;;;;11.70;5.40;;;15.10;99.90;;;;;;5028374;28;20112;-68
2023/07/31 01:11:16;;;;;;;10.75;5.35;;;15.10;99.90;;;;;;5027052;28;20052;-64
2023/07/31 01:13:44;;;;;;;26.70;5.10;;;15.10;99.90;;;;;;5027231;28;20067;-73
2023/07/31 01:16:09;;;;;;;12.80;5.20;;;15.00;99.90;;;;;;5044331;28;20056;-67
2023/07/31 01:18:35;;;;;;;12.65;4.63;;;15.00;99.90;;;;;;5061719;28;20037;-67
2023/07/31 01:21:32;;;;;;;11.32;6.13;;;15.10;99.90;;;;;;5047722;28;20574;-63
2023/07/31 01:24:20;;;;;;;8.23;4.70;;;15.10;99.90;;;;;;5029838;28;20041;-66
2023/07/31 01:26:55;;;;;;;10.38;5.03;;;15.10;99.90;;;;;;5046269;28;20148;-69
2023/07/31 01:29:34;;;;;;;9.23;5.00;;;15.00;99.90;;;;;;5047024;28;20047;-64
2023/07/31 01:32:03;;;;;;;12.07;4.82;;;15.00;99.90;;;;;;5047658;28;20155;-69
2023/07/31 01:34:30;;;;;;;7.75;4.28;;;15.10;99.90;;;;;;5046081;28;20045;-67
2023/07/31 01:36:58;;;;;;;10.90;4.85;;;15.00;99.90;;;;;;5029980;28;20372;-65
2023/07/31 01:39:24;;;;;;;8.63;4.43;;;15.00;99.90;;;;;;5027840;28;20128;-69
2023/07/31 01:41:50;;;;;;;10.80;4.43;;;15.00;99.90;;;;;;5042803;28;20132;-64
2023/07/31 01:44:15;;;;;;;6.45;3.53;;;15.00;99.90;;;;;;5026884;28;20128;-67
2023/07/31 01:46:41;;;;;;;6.45;3.13;;;15.00;99.90;;;;;;5043825;28;20445;-70
2023/07/31 01:49:06;;;;;;;8.32;3.17;;;15.00;99.90;;;;;;5059553;28;20243;-70
2023/07/31 01:51:35;;;;;;;8.30;2.97;;;15.00;99.90;;;;;;5031285;28;20052;-68
2023/07/31 01:54:01;;;;;;;9.25;2.88;;;15.00;99.90;;;;;;5062767;28;20044;-69
2023/07/31 01:56:27;;;;;;;5.47;2.70;;;15.00;99.90;;;;;;5028984;28;20041;-68
2023/07/31 01:58:52;;;;;;;5.93;3.00;;;15.00;99.90;;;;;;5047555;28;20044;-68
2023/07/31 02:01:18;;;;;;;5.53;2.42;;;15.00;99.90;;;;;;5046858;28;20615;-69
2023/07/31 02:03:44;;;;;;;5.05;2.05;;;15.00;99.90;;;;;;5046680;28;20045;-69
2023/07/31 02:06:09;;;;;;;6.30;2.25;;;15.00;99.90;;;;;;5046306;28;20120;-70
2023/07/31 02:08:35;;;;;;;4.97;2.00;;;15.00;99.90;;;;;;5045692;28;20514;-67
2023/07/31 02:11:00;;;;;;;5.20;2.05;;;15.00;99.90;;;;;;5045450;28;20071;-66
2023/07/31 02:13:26;;;;;;;4.32;1.90;;;15.00;99.90;;;;;;5065446;28;20039;-67
2023/07/31 02:15:52;;;;;;;4.10;1.85;;;15.00;99.90;;;;;;5046712;28;20044;-66
2023/07/31 02:18:17;;;;;;;5.00;1.70;;;15.00;99.90;;;;;;5046974;28;20036;-67
2023/07/31 02:20:46;;;;;;;6.63;1.88;;;15.00;99.90;;;;;;5065222;28;20036;-65
2023/07/31 02:23:11;;;;;;;4.50;1.70;;;15.00;99.90;;;;;;5046649;28;20037;-67
2023/07/31 02:25:37;;;;;;;4.32;1.52;;;15.00;99.90;;;;;;5063123;28;20106;-68
2023/07/31 02:28:02;;;;;;;4.15;1.58;;;15.00;99.90;;;;;;5046374;28;20477;-66
2023/07/31 02:30:28;;;;;;;4.72;1.50;;;15.00;99.90;;;;;;5046988;28;20520;-67
2023/07/31 02:32:54;;;;;;;3.30;1.30;;;15.00;99.90;;;;;;5034160;28;20072;-67
2023/07/31 02:35:20;;;;;;;5.03;1.30;;;15.00;99.90;;;;;;5046951;28;20052;-64
2023/07/31 02:37:48;;;;;;;4.60;1.60;;;15.00;99.90;;;;;;5045643;28;20056;-67
2023/07/31 02:40:14;;;;;;;3.45;1.30;;;15.00;99.90;;;;;;5045920;28;20719;-73
2023/07/31 02:42:39;;;;;;;4.95;1.30;;;15.00;99.90;;;;;;5045373;28;20051;-66
2023/07/31 02:45:06;;;;;;;3.75;1.30;;;15.00;99.90;;;;;;5046392;28;20391;-70
2023/07/31 02:47:31;;;;;;;3.17;1.20;;;15.00;99.90;;;;;;5029878;28;20131;-64
2023/07/31 02:49:57;;;;;;;4.32;1.45;;;15.00;99.90;;;;;;5026619;28;20119;-67
2023/07/31 02:52:23;;;;;;;3.45;1.33;;;15.00;99.90;;;;;;5039658;28;20428;-66
2023/07/31 02:54:48;;;;;;;4.20;1.50;;;15.00;99.90;;;;;;5029465;28;20459;-69
2023/07/31 02:57:14;;;;;;;3.85;1.35;;;15.00;99.90;;;;;;5063404;28;20036;-63
2023/07/31 02:59:40;;;;;;;5.05;1.60;;;15.00;99.90;;;;;;5029471;28;20051;-70
2023/07/31 03:02:06;;;;;;;3.55;1.40;;;15.00;99.90;;;;;;5029278;28;20115;-63
2023/07/31 03:04:31;;;;;;;3.60;1.30;;;15.00;99.90;;;;;;5045304;28;20044;-66
2023/07/31 03:06:57;;;;;;;4.00;1.70;;;15.00;99.90;;;;;;5045198;28;20051;-67
2023/07/31 03:09:23;;;;;;;3.95;1.60;;;15.00;99.90;;;;;;5045499;28;20047;-66
2023/07/31 03:11:48;;;;;;;4.05;1.70;;;15.00;99.90;;;;;;5062925;28;20036;-67
2023/07/31 03:14:14;;;;;;;4.20;1.48;;;15.00;99.90;;;;;;5045843;28;20476;-66
2023/07/31 03:16:40;;;;;;;4.53;1.77;;;15.10;99.90;;;;;;5046048;28;20047;-66
2023/07/31 03:19:05;;;;;;;4.60;1.60;;;15.00;99.90;;;;;;5045156;28;20060;-65
2023/07/31 03:21:31;;;;;;;4.22;1.60;;;15.00;99.90;;;;;;5063763;28;20263;-68
2023/07/31 03:23:56;;;;;;;6.45;1.60;;;15.00;99.90;;;;;;5029556;28;20048;-64
2023/07/31 03:26:22;;;;;;;4.80;1.70;;;15.00;99.90;;;;;;5042765;28;20048;-63
2023/07/31 03:28:49;;;;;;;5.10;1.67;;;15.00;99.90;;;;;;5026420;28;20084;-63
2023/07/31 03:31:14;;;;;;;4.55;1.50;;;15.10;99.90;;;;;;5026343;28;20033;-69
2023/07/31 03:33:40;;;;;;;5.70;1.70;;;15.10;99.90;;;;;;5042937;28;20095;-66
2023/07/31 03:36:06;;;;;;;6.43;1.33;;;15.10;99.90;;;;;;5045421;28;20321;-64
2023/07/31 03:38:31;;;;;;;4.25;1.58;;;15.10;99.90;;;;;;5052731;28;20633;-66
2023/07/31 03:40:58;;;;;;;4.75;1.30;;;15.10;99.90;;;;;;5046601;28;20509;-66
2023/07/31 03:43:24;;;;;;;4.40;1.60;;;15.10;99.90;;;;;;5047645;28;20041;-64
2023/07/31 03:45:50;;;;;;;3.00;1.30;;;15.10;99.90;;;;;;5055764;28;20036;-66
2023/07/31 03:48:16;;;;;;;4.40;1.45;;;15.10;99.90;;;;;;5067099;28;20903;-65
2023/07/31 03:50:42;;;;;;;4.47;1.20;;;15.10;99.90;;;;;;5030062;28;20048;-65
2023/07/31 03:53:07;;;;;;;3.35;1.13;;;15.10;99.90;;;;;;5030209;28;20400;-66
2023/07/31 03:55:33;;;;;;;3.42;1.27;;;15.10;99.90;;;;;;5045086;28;20488;-67
2023/07/31 03:58:00;;;;;;;4.50;1.02;;;15.20;99.90;;;;;;5028974;28;20508;-66
2023/07/31 04:00:27;;;;;;;4.85;1.20;;;15.10;99.90;;;;;;5029657;28;20079;-65
2023/07/31 04:02:52;;;;;;;3.60;1.23;;;15.20;99.90;;;;;;5046006;28;20064;-65
2023/07/31 04:05:18;;;;;;;4.45;1.30;;;15.20;99.90;;;;;;5067520;28;20033;-65
2023/07/31 04:07:44;;;;;;;2.75;1.20;;;15.20;99.90;;;;;;5048162;28;20119;-66
2023/07/31 04:10:09;;;;;;;5.53;1.20;;;15.20;99.90;;;;;;5066332;28;20697;-65
2023/07/31 04:12:35;;;;;;;5.47;1.20;;;15.20;99.90;;;;;;5048185;28;20182;-67
2023/07/31 04:15:00;;;;;;;3.85;1.08;;;15.20;99.90;;;;;;5042552;28;20033;-67
2023/07/31 04:17:26;;;;;;;3.17;1.20;;;15.20;99.90;;;;;;5029477;28;20040;-68
2023/07/31 04:19:52;;;;;;;2.53;0.90;;;15.20;99.90;;;;;;5029021;28;20045;-67
2023/07/31 04:22:18;;;;;;;4.15;1.00;;;15.20;99.90;;;;;;5030949;28;20044;-66
2023/07/31 04:24:43;;;;;;;3.15;1.08;;;15.30;99.90;;;;;;5048591;28;20047;-66
2023/07/31 04:27:09;;;;;;;3.00;1.00;;;15.30;99.90;;;;;;5047647;28;20032;-67
2023/07/31 04:29:35;;;;;;;2.20;0.90;;;15.30;99.90;;;;;;5048738;28;20074;-66
2023/07/31 04:32:00;;;;;;;2.20;0.90;;;15.30;99.90;;;;;;5031650;28;20372;-66
2023/07/31 04:34:26;;;;;;;3.72;1.30;;;15.30;99.90;;;;;;5066079;28;20461;-66
2023/07/31 04:36:51;;;;;;;5.85;1.40;;;15.30;99.90;;;;;;5047401;28;20149;-68
2023/07/31 04:39:17;;;;;;;5.28;1.10;;;15.30;99.90;;;;;;5047036;28;20044;-65
2023/07/31 04:41:42;;;;;;;4.53;0.95;;;15.40;99.90;;;;;;5035312;28;20037;-65
2023/07/31 04:44:08;;;;;;;5.05;1.40;;;15.40;99.90;;;;;;5048481;28;20036;-65
2023/07/31 04:46:34;;;;;;;3.60;1.20;;;15.40;99.90;;;;;;5048656;28;20123;-64
2023/07/31 04:49:00;;;;;;;6.50;1.27;;;15.40;99.90;;;;;;5036370;28;20567;-64
2023/07/31 04:51:26;;;;;;;4.43;1.27;;;15.40;99.90;;;;;;5046402;28;20515;-63
2023/07/31 04:53:51;;;;;;;4.75;1.50;;;15.40;99.90;;;;;;5028255;28;20041;-63
2023/07/31 04:56:17;;;;;;;3.90;1.30;;;15.40;99.90;;;;;;5047827;28;20159;-64
2023/07/31 04:58:43;;;;;;;7.22;1.77;;;15.40;99.90;;;;;;5048510;28;20048;-63
2023/07/31 05:01:08;;;;;;;4.43;1.33;;;15.40;99.90;;;;;;5031935;28;20047;-63
2023/07/31 05:03:34;;;;;;;5.05;1.52;;;15.40;99.90;;;;;;5030350;28;20492;-64
2023/07/31 05:05:59;;;;;;;5.82;1.50;;;15.40;99.90;;;;;;5048153;28;20475;-64
2023/07/31 05:08:25;;;;;;;6.82;1.70;;;15.40;99.90;;;;;;5035171;28;20051;-64
2023/07/31 05:10:51;;;;;;;5.93;1.55;;;15.40;99.90;;;;;;5044688;28;20041;-64
2023/07/31 05:13:16;;;;;;;4.78;1.65;;;15.40;99.90;;;;;;5029936;28;20064;-64
2023/07/31 05:15:42;;;;;;;5.57;1.60;;;15.40;99.90;;;;;;5065503;28;20079;-64
2023/07/31 05:18:08;;;;;;;4.72;1.55;;;15.40;99.90;;;;;;5046877;28;20044;-63
2023/07/31 05:20:36;;;;;;;7.05;2.22;;;15.40;99.90;;;;;;5047778;28;20521;-64
2023/07/31 05:23:02;;;;;;;7.97;1.95;;;15.40;99.90;;;;;;5039749;28;20053;-64
2023/07/31 05:25:27;;;;;;;7.68;1.80;;;15.40;99.90;;;;;;5026711;28;20045;-65
2023/07/31 05:27:53;;;;;;;4.18;1.70;;;15.40;99.90;;;;;;5061064;28;20450;-66
2023/07/31 05:30:19;;;;;;;5.30;1.63;;;15.40;99.90;;;;;;5031732;28;20121;-65
2023/07/31 05:32:44;;;;;;;6.28;1.60;;;15.40;99.90;;;;;;5065341;28;20047;-63
2023/07/31 05:35:10;;;;;;;4.72;1.90;;;15.40;99.90;;;;;;5065182;28;20426;-64
2023/07/31 05:37:35;;;;;;;5.65;1.48;;;15.30;99.90;;;;;;5046645;28;20044;-63
2023/07/31 05:40:01;;;;;;;4.57;1.60;;;15.40;99.90;;;;;;5047074;28;20129;-67
2023/07/31 05:42:27;;;;;;;4.30;1.50;;;15.40;99.90;;;;;;5046591;28;20135;-67
2023/07/31 05:44:52;;;;;;;5.90;1.73;;;15.40;99.90;;;;;;5047456;28;20044;-67
2023/07/31 05:47:18;;;;;;;5.05;1.70;;;15.40;99.90;;;;;;5030824;28;20037;-65
2023/07/31 05:49:44;;;;;;;5.18;1.90;;;15.50;99.90;;;;;;5046680;28;20032;-65
2023/07/31 05:52:09;;;;;;;7.38;2.10;;;15.50;99.90;;;;;;5029978;28;20506;-62
2023/07/31 05:54:35;;;;;;;7.40;2.85;;;15.50;99.90;;;;;;5026793;28;20040;-64
2023/07/31 05:57:01;;;;;;;6.47;2.50;;;15.50;99.90;;;;;;5052443;28;20094;-65
2023/07/31 05:59:26;;;;;;;8.77;2.65;;;15.50;99.90;;;;;;5046613;28;20044;-65
2023/07/31 06:01:52;;;;;;;7.57;2.30;;;15.60;99.90;;;;;;5046842;28;20067;-65
2023/07/31 06:04:18;;;;;;;6.53;2.22;;;15.60;99.90;;;;;;5064381;28;20049;-64
2023/07/31 06:06:44;;;;;;;7.78;2.38;;;15.60;99.90;;;;;;5046842;28;20097;-67
2023/07/31 06:09:09;;;;;;;7.63;2.72;;;15.60;99.90;;;;;;5045455;28;20044;-65
2023/07/31 06:11:35;;;;;;;11.60;3.28;;;15.60;99.90;;;;;;5029406;28;20037;-68
2023/07/31 06:14:00;;;;;;;8.93;2.80;;;15.60;99.90;;;;;;5046871;28;20032;-66
2023/07/31 06:16:27;;;;;;;8.48;3.25;;;15.70;99.90;;;;;;5064514;28;20044;-67
2023/07/31 06:18:54;;;;;;;11.05;3.78;;;15.70;99.90;;;;;;5064112;28;20051;-66
2023/07/31 06:21:20;;;;;;;13.82;4.40;;;15.70;99.90;;;;;;5046667;28;20496;-65
2023/07/31 06:23:46;;;;;;;18.17;5.95;;;15.70;99.90;;;;;;5028851;28;20046;-67
2023/07/31 06:26:11;;;;;;;24.85;6.00;;;15.80;99.90;;;;;;5045635;28;20048;-63
2023/07/31 06:28:37;;;;;;;24.35;7.22;;;15.80;99.90;;;;;;5046404;28;20060;-64
2023/07/31 06:31:03;;;;;;;31.38;7.75;;;15.90;99.90;;;;;;5064975;28;20044;-63
2023/07/31 06:33:28;;;;;;;36.80;10.05;;;16.00;99.90;;;;;;5039418;28;20148;-64
2023/07/31 06:35:54;;;;;;;28.23;9.23;;;16.00;99.90;;;;;;5043364;28;20106;-64
2023/07/31 06:38:24;;;;;;;38.00;11.23;;;16.10;99.90;;;;;;5057030;28;20079;-68
2023/07/31 06:40:49;;;;;;;35.15;10.82;;;16.10;99.90;;;;;;5063570;28;20044;-69
2023/07/31 06:43:15;;;;;;;35.17;10.95;;;16.20;99.90;;;;;;5057415;28;20037;-69
2023/07/31 06:45:40;;;;;;;41.50;10.88;;;16.30;99.90;;;;;;5042777;28;20043;-65
2023/07/31 06:48:06;;;;;;;39.30;10.20;;;16.30;99.90;;;;;;5027385;28;20037;-67
2023/07/31 06:50:32;;;;;;;36.03;10.40;;;16.40;99.90;;;;;;5026638;28;20462;-67
2023/07/31 06:52:58;;;;;;;33.30;9.60;;;16.40;99.90;;;;;;5033526;28;20376;-68
2023/07/31 06:55:25;;;;;;;33.25;10.23;;;16.50;99.90;;;;;;5045219;28;20664;-67
2023/07/31 06:57:53;;;;;;;33.13;9.25;;;16.50;99.90;;;;;;5045482;28;20483;-65
2023/07/31 07:00:20;;;;;;;26.30;8.70;;;16.50;99.90;;;;;;5064101;28;20071;-65
2023/07/31 07:02:49;;;;;;;26.23;9.48;;;16.60;99.90;;;;;;5046038;28;20092;-77
2023/07/31 07:05:16;;;;;;;34.08;9.65;;;16.60;99.90;;;;;;5029598;28;20374;-64
2023/07/31 07:07:42;;;;;;;25.73;8.88;;;16.60;99.90;;;;;;5029006;28;20036;-66
2023/07/31 07:10:08;;;;;;;26.70;8.48;;;16.60;99.90;;;;;;5045219;28;20044;-70
2023/07/31 07:12:34;;;;;;;33.10;9.00;;;16.60;99.90;;;;;;5031307;28;20486;-69
2023/07/31 07:15:00;;;;;;;26.52;9.13;;;16.60;99.90;;;;;;5049548;28;20060;-67
2023/07/31 07:17:29;;;;;;;32.03;9.50;;;16.60;99.90;;;;;;5050806;28;20892;-67
2023/07/31 07:19:55;;;;;;;34.00;9.40;;;16.60;99.90;;;;;;5048475;28;20087;-74
2023/07/31 07:22:21;;;;;;;28.27;8.77;;;16.60;99.90;;;;;;5043126;28;20428;-74
2023/07/31 07:24:47;;;;;;;32.15;9.02;;;16.60;99.90;;;;;;5048332;28;20051;-67
2023/07/31 07:27:12;;;;;;;27.63;8.23;;;16.60;99.90;;;;;;5044807;28;20094;-72
2023/07/31 07:29:38;;;;;;;30.75;9.52;;;16.60;99.90;;;;;;5049105;28;20395;-69
2023/07/31 07:32:04;;;;;;;27.20;8.77;;;16.60;99.90;;;;;;5049230;28;20126;-67
2023/07/31 07:34:30;;;;;;;25.05;7.72;;;16.60;99.90;;;;;;5064748;28;20045;-66
2023/07/31 07:36:56;;;;;;;32.58;8.82;;;16.60;99.90;;;;;;5033143;28;20036;-72
2023/07/31 07:39:22;;;;;;;29.65;7.80;;;16.60;99.90;;;;;;5031747;28;20037;-74
2023/07/31 07:41:47;;;;;;;23.88;7.40;;;16.60;99.90;;;;;;5048595;28;20037;-70
2023/07/31 07:44:14;;;;;;;17.08;6.85;;;16.60;99.90;;;;;;5059532;28;20468;-69
2023/07/31 07:46:39;;;;;;;21.88;6.15;;;16.60;99.90;;;;;;5048880;28;20040;-68
2023/07/31 07:49:05;;;;;;;19.13;4.97;;;16.60;99.90;;;;;;5042368;28;20389;-63
2023/07/31 07:51:31;;;;;;;15.70;4.93;;;16.50;99.90;;;;;;5030917;28;20047;-60
2023/07/31 07:54:01;;;;;;;12.48;4.90;;;16.50;99.90;;;;;;5046709;28;20051;-65
2023/07/31 07:56:27;;;;;;;13.05;5.13;;;16.50;99.90;;;;;;5044348;28;20045;-64
2023/07/31 07:58:54;;;;;;;17.73;5.15;;;16.40;99.90;;;;;;5049048;28;20052;-70
2023/07/31 08:01:20;;;;;;;16.77;4.68;;;16.50;99.90;;;;;;5062319;28;20056;-66
2023/07/31 08:03:47;;;;;;;12.18;4.00;;;16.40;99.90;;;;;;5061720;28;20048;-67
2023/07/31 08:06:14;;;;;;;9.68;3.80;;;16.40;99.90;;;;;;5032835;28;20052;-65
2023/07/31 08:08:40;;;;;;;11.27;3.90;;;16.40;99.90;;;;;;5030901;28;20044;-66
2023/07/31 08:11:06;;;;;;;13.05;4.10;;;16.40;99.90;;;;;;5047256;28;20067;-64
2023/07/31 08:13:31;;;;;;;9.70;3.80;;;16.40;99.90;;;;;;5048227;28;20362;-66
2023/07/31 08:16:00;;;;;;;10.55;3.65;;;16.40;99.90;;;;;;5048374;28;20131;-64
2023/07/31 08:18:26;;;;;;;10.32;3.88;;;16.40;99.90;;;;;;5046613;28;20533;-67
2023/07/31 08:20:51;;;;;;;8.98;3.72;;;16.40;99.90;;;;;;5047864;28;20048;-66
2023/07/31 08:23:17;;;;;;;10.27;3.42;;;16.40;99.90;;;;;;5064970;28;20777;-67
2023/07/31 08:25:42;;;;;;;12.32;3.80;;;16.30;99.90;;;;;;5064824;28;20349;-61
2023/07/31 08:28:08;;;;;;;8.50;3.72;;;16.40;99.90;;;;;;5047403;28;20024;-66
2023/07/31 08:30:34;;;;;;;8.70;3.10;;;16.40;99.90;;;;;;5047935;28;20302;-63
2023/07/31 08:33:00;;;;;;;10.15;3.03;;;16.40;99.90;;;;;;5047420;28;20040;-64
2023/07/31 08:35:27;;;;;;;7.75;3.30;;;16.40;99.90;;;;;;5031600;28;20498;-62
2023/07/31 08:37:53;;;;;;;9.45;3.30;;;16.40;99.90;;;;;;5062594;28;20048;-65
2023/07/31 08:40:19;;;;;;;9.48;3.13;;;16.40;99.90;;;;;;5064199;28;20040;-67
2023/07/31 08:42:50;;;;;;;8.05;2.63;;;16.40;99.90;;;;;;5046894;28;20040;-63
2023/07/31 08:45:18;;;;;;;9.68;3.15;;;16.40;99.90;;;;;;5046978;28;20044;-63
2023/07/31 08:47:52;;;;;;;7.57;2.88;;;16.50;99.90;;;;;;5064147;28;20041;-63
2023/07/31 08:50:20;;;;;;;7.22;2.55;;;16.50;99.90;;;;;;5046188;28;20029;-65
2023/07/31 08:52:47;;;;;;;6.43;2.60;;;16.60;99.90;;;;;;5029851;28;20079;-61
2023/07/31 08:55:13;;;;;;;6.55;2.50;;;16.60;99.90;;;;;;5046991;28;20846;-64
2023/07/31 08:57:39;;;;;;;6.30;2.58;;;16.60;99.90;;;;;;5046653;28;20137;-67
2023/07/31 09:00:06;;;;;;;7.22;2.65;;;16.60;99.90;;;;;;5046457;28;20040;-63
2023/07/31 09:02:45;;;;;;;7.05;2.70;;;16.60;99.90;;;;;;5031002;28;20519;-65
2023/07/31 09:05:12;;;;;;;5.65;2.17;;;16.70;99.90;;;;;;5065499;28;20568;-68
2023/07/31 09:07:38;;;;;;;8.65;3.08;;;16.70;99.90;;;;;;5046338;28;20040;-68
2023/07/31 09:10:05;;;;;;;6.05;2.63;;;16.70;99.90;;;;;;5046858;28;20045;-62
2023/07/31 09:12:31;;;;;;;7.03;2.13;;;16.70;99.90;;;;;;5064960;28;20056;-65
2023/07/31 09:15:00;;;;;;;4.63;1.92;;;16.80;99.90;;;;;;5065068;28;20103;-67
2023/07/31 09:17:31;;;;;;;7.60;2.40;;;16.80;99.90;;;;;;5047714;28;20070;-65
2023/07/31 09:19:57;;;;;;;6.72;2.35;;;16.90;99.90;;;;;;5047528;28;20451;-66
2023/07/31 09:22:33;;;;;;;5.03;2.10;;;16.90;99.90;;;;;;5046781;28;20305;-70
2023/07/31 09:25:24;;;;;;;5.78;2.05;;;17.00;99.90;;;;;;5064745;28;20050;-69
2023/07/31 09:28:01;;;;;;;5.85;2.17;;;17.00;99.90;;;;;;5064201;28;20036;-63
2023/07/31 09:30:26;;;;;;;5.20;1.88;;;17.00;99.90;;;;;;5065426;28;20036;-69
2023/07/31 09:33:08;;;;;;;4.30;1.77;;;17.10;99.90;;;;;;5046638;28;20051;-68
2023/07/31 09:35:37;;;;;;;4.10;1.75;;;17.10;99.90;;;;;;5046252;28;20044;-65
2023/07/31 09:38:07;;;;;;;3.33;1.48;;;17.10;99.90;;;;;;5045929;28;20072;-67
2023/07/31 09:40:37;;;;;;;3.60;1.45;;;17.10;99.90;;;;;;5029532;28;20055;-59
2023/07/31 09:43:04;;;;;;;4.05;1.60;;;17.20;99.90;;;;;;5029106;28;20032;-68
2023/07/31 09:45:36;;;;;;;3.55;1.50;;;17.20;99.90;;;;;;5065230;28;20442;-64
2023/07/31 09:48:10;;;;;;;4.03;1.23;;;17.30;99.90;;;;;;5040072;28;20227;-65
2023/07/31 09:50:38;;;;;;;3.17;1.13;;;17.30;99.90;;;;;;5046335;28;20518;-68
2023/07/31 09:53:04;;;;;;;3.80;1.40;;;17.30;99.90;;;;;;5046139;28;20062;-66
2023/07/31 09:55:31;;;;;;;2.65;1.10;;;17.40;99.90;;;;;;5063897;28;20091;-66
2023/07/31 09:57:57;;;;;;;2.58;0.95;;;17.50;99.90;;;;;;5044736;28;20040;-64
2023/07/31 10:00:25;;;;;;;3.13;1.20;;;17.60;99.90;;;;;;5033305;28;20045;-68
2023/07/31 10:02:51;;;;;;;2.95;1.05;;;17.60;99.90;;;;;;5044085;28;20049;-65
2023/07/31 10:05:17;;;;;;;2.92;0.90;;;17.70;99.90;;;;;;5041210;28;20097;-65
2023/07/31 10:07:50;;;;;;;1.95;0.85;;;17.70;99.90;;;;;;5060416;28;20454;-63
2023/07/31 10:10:19;;;;;;;2.92;0.98;;;17.80;99.90;;;;;;5026485;28;20727;-68
2023/07/31 10:12:46;;;;;;;2.00;0.80;;;17.90;99.90;;;;;;5034795;28;20059;-64
2023/07/31 10:15:14;;;;;;;1.17;0.60;;;18.10;99.90;;;;;;5063717;28;20042;-69
2023/07/31 10:17:40;;;;;;;0.98;0.60;;;18.10;99.90;;;;;;5063882;28;20477;-68
2023/07/31 10:20:07;;;;;;;1.73;0.70;;;18.10;99.90;;;;;;5045739;28;20592;-68
2023/07/31 10:22:33;;;;;;;1.60;0.65;;;18.10;99.90;;;;;;5061544;28;20124;-65
2023/07/31 10:25:00;;;;;;;1.42;0.70;;;18.10;99.90;;;;;;5045106;28;20536;-70
2023/07/31 10:27:26;;;;;;;2.88;0.90;;;18.10;99.90;;;;;;5044243;28;20174;-67
2023/07/31 10:29:54;;;;;;;2.72;0.85;;;18.10;99.90;;;;;;5030566;28;20123;-67
2023/07/31 10:32:21;;;;;;;2.67;0.80;;;18.10;99.90;;;;;;5046958;28;20518;-69
2023/07/31 10:34:48;;;;;;;1.23;0.63;;;18.10;99.90;;;;;;5028889;28;20756;-67
2023/07/31 10:37:21;;;;;;;2.00;0.80;;;18.10;99.90;;;;;;5029317;28;20052;-65
2023/07/31 10:39:56;;;;;;;2.70;0.88;;;18.10;99.90;;;;;;5064697;28;20044;-66
2023/07/31 10:42:29;;;;;;;5.10;0.90;;;18.20;99.90;;;;;;5028709;28;20079;-65
2023/07/31 10:44:59;;;;;;;2.00;0.90;;;18.20;99.90;;;;;;5045800;28;20664;-69
2023/07/31 10:47:25;;;;;;;3.33;1.50;;;18.30;99.90;;;;;;5046181;28;20048;-65
2023/07/31 10:49:50;;;;;;;2.00;0.90;;;18.30;99.90;;;;;;5043533;28;20032;-65
2023/07/31 10:52:26;;;;;;;1.90;0.82;;;18.30;99.90;;;;;;5044503;28;20075;-62
2023/07/31 10:55:32;;;;;;;3.08;0.85;;;18.30;99.90;;;;;;5063855;28;20121;-63
2023/07/31 10:58:07;;;;;;;3.35;1.10;;;18.30;99.90;;;;;;5061363;28;20045;-62
2023/07/31 11:00:33;;;;;;;3.28;1.10;;;18.20;99.90;;;;;;5063151;28;20033;-62
2023/07/31 11:03:03;;;;;;;2.70;0.90;;;18.30;99.90;;;;;;5061373;28;20059;-69
2023/07/31 11:05:53;;;;;;;2.25;0.85;;;18.20;99.90;;;;;;5018735;28;20396;-63
2023/07/31 11:08:29;;;;;;;0.85;0.50;;;18.30;99.90;;;;;;5059156;28;20036;-61
2023/07/31 11:11:01;;;;;;;1.42;0.60;;;18.30;99.90;;;;;;5043284;28;20511;-62
2023/07/31 11:13:27;;;;;;;3.13;0.70;;;18.20;99.90;;;;;;5043914;28;20106;-64
2023/07/31 11:15:53;;;;;;;2.33;0.50;;;18.20;99.90;;;;;;5062842;28;20094;-64
2023/07/31 11:18:18;;;;;;;3.08;0.50;;;18.20;99.90;;;;;;5043849;28;20036;-59
2023/07/31 11:20:44;;;;;;;1.95;0.50;;;18.10;99.90;;;;;;5045879;28;20449;-62
2023/07/31 11:23:10;;;;;;;0.80;0.38;;;18.10;99.90;;;;;;5059632;28;20093;-63
2023/07/31 11:25:37;;;;;;;2.17;0.50;;;18.00;99.90;;;;;;5042488;28;20060;-65
2023/07/31 11:28:05;;;;;;;3.00;0.50;;;18.00;99.90;;;;;;5041584;28;20055;-60
2023/07/31 11:30:30;;;;;;;0.60;0.40;;;17.90;99.90;;;;;;5062923;28;20072;-61
2023/07/31 11:32:56;;;;;;;5.15;0.80;;;17.90;99.90;;;;;;5060851;28;20064;-60
2023/07/31 11:35:22;;;;;;;1.38;0.65;;;17.90;99.90;;;;;;5062801;28;20080;-61
2023/07/31 11:37:48;;;;;;;2.25;0.50;;;17.90;99.90;;;;;;5060644;28;20044;-64
2023/07/31 11:40:14;;;;;;;2.17;0.50;;;17.80;99.90;;;;;;5062418;28;20040;-66
2023/07/31 11:42:40;;;;;;;3.05;0.57;;;17.80;99.90;;;;;;5043572;28;20366;-68
2023/07/31 11:45:09;;;;;;;1.17;0.50;;;17.80;99.90;;;;;;5044455;28;20089;-62
2023/07/31 11:47:36;;;;;;;1.48;0.50;;;17.80;99.90;;;;;;5063229;28;20040;-62
2023/07/31 11:50:04;;;;;;;0.93;0.60;;;17.90;99.90;;;;;;5043306;28;20143;-64
2023/07/31 11:52:35;;;;;;;1.30;0.43;;;17.90;99.90;;;;;;5044058;28;20044;-59
2023/07/31 11:55:01;;;;;;;2.38;0.60;;;17.90;99.90;;;;;;5043588;28;20127;-61
2023/07/31 11:57:28;;;;;;;2.15;0.60;;;18.00;99.90;;;;;;5041803;28;20547;-64
2023/07/31 11:59:54;;;;;;;1.55;0.60;;;18.00;99.90;;;;;;5048313;28;20135;-63
2023/07/31 12:02:21;;;;;;;2.17;0.65;;;18.10;99.90;;;;;;5066134;28;20056;-64
2023/07/31 12:04:47;;;;;;;1.67;0.60;;;18.10;99.90;;;;;;5047702;28;20098;-64
2023/07/31 12:07:12;;;;;;;1.83;0.70;;;18.20;99.90;;;;;;5048495;28;20063;-67
2023/07/31 12:09:38;;;;;;;2.88;0.80;;;18.30;99.90;;;;;;5065887;28;20033;-64
2023/07/31 12:12:08;;;;;;;2.00;0.85;;;18.40;99.90;;;;;;5065412;28;20093;-66
2023/07/31 12:14:34;;;;;;;2.17;0.85;;;18.60;99.90;;;;;;5027806;28;20063;-64
2023/07/31 12:17:04;;;;;;;2.70;0.90;;;18.70;99.90;;;;;;5065471;28;20503;-63
2023/07/31 12:19:30;;;;;;;4.15;1.15;;;18.70;99.90;;;;;;5058772;28;20132;-65
2023/07/31 12:21:56;;;;;;;2.65;1.20;;;18.90;99.90;;;;;;5058765;28;20044;-61
2023/07/31 12:24:22;;;;;;;4.30;1.40;;;18.90;99.90;;;;;;5042568;28;20029;-68
2023/07/31 12:26:48;;;;;;;5.20;1.48;;;18.90;99.90;;;;;;5061757;28;20530;-69
2023/07/31 12:29:14;;;;;;;3.35;1.23;;;18.90;99.90;;;;;;5042949;28;20039;-61
2023/07/31 12:31:43;;;;;;;7.82;1.65;;;18.90;99.90;;;;;;5049914;28;20025;-66
2023/07/31 12:34:21;;;;;;;6.85;1.65;;;18.80;99.90;;;;;;5065626;28;20032;-62
2023/07/31 12:36:48;;;;;;;5.57;1.88;;;18.80;99.90;;;;;;5061868;28;20048;-60
2023/07/31 12:39:14;;;;;;;4.93;1.55;;;18.70;99.90;;;;;;5039294;28;20178;-65
2023/07/31 12:41:40;;;;;;;6.68;1.90;;;18.70;99.90;;;;;;5028209;28;20044;-65